Weather at Foster Airport [CLOSED]

Public forecast

Using degrees Fahrenheit for public forecast. Weather courtesy of forecast.io.

Closest aviation weather report (METAR) to Foster Airport

Closest report is Stinson Municipal Airport, 4.2 nm (7.8 km) NNW.

2024/07/24 20:53 (retrieved 19 minutes ago)

KSSF 242053Z 11010KT 10SM FEW070 29/22 A3005 RMK AO2 LTG DSNT E SLP163 T02940217 56011

Closest aviation forecast (TAF) to Foster Airport

Closest forecast is Stinson Municipal Airport, 4.2 nm (7.8 km) NNW.

2024/07/24 18:22 (retrieved 3 hours ago)

TAF KSSF 241720Z 2418/2518 07005KT P6SM VCSH SCT030 BKN050 TEMPO 2418/2422 4SM -SHRA BR FM250100 10005KT P6SM SCT030 BKN100 FM251100 36002KT P6SM BKN015 FM251700 03007KT P6SM VCSH BKN050